createdAt,value
2022-11-23T00:04:45.458Z,80.96
2022-11-23T00:09:46.794Z,80.80
2022-11-23T00:14:48.125Z,80.80
2022-11-23T00:19:49.394Z,80.58
2022-11-23T00:24:50.869Z,80.24
2022-11-23T00:29:52.229Z,80.58
2022-11-23T00:34:53.563Z,80.37
2022-11-23T00:39:54.879Z,80.90
2022-11-23T00:44:56.149Z,80.95
2022-11-23T00:49:57.522Z,80.79
2022-11-23T00:54:58.839Z,80.44
2022-11-23T01:00:00.970Z,80.69
2022-11-23T01:05:03.472Z,80.37
2022-11-23T01:10:05.213Z,80.83
2022-11-23T01:15:07.080Z,81.02
2022-11-23T01:20:09.254Z,80.84
2022-11-23T01:25:10.560Z,80.92
2022-11-23T01:30:12.266Z,80.67
2022-11-23T01:35:13.600Z,80.87
2022-11-23T01:40:15.118Z,80.47
2022-11-23T01:45:36.690Z,80.89
2022-11-23T01:50:38.581Z,81.00
2022-11-23T01:55:40.233Z,81.47
2022-11-23T02:00:42.323Z,81.21
2022-11-23T02:05:48.402Z,81.54
2022-11-23T02:10:49.829Z,81.37
2022-11-23T02:15:52.320Z,80.92
2022-11-23T02:20:53.979Z,80.83
2022-11-23T02:26:00.213Z,81.18
2022-11-23T02:31:02.508Z,81.56
2022-11-23T02:36:38.409Z,81.56
2022-11-23T02:41:51.648Z,81.09
2022-11-23T02:46:53.884Z,80.87
2022-11-23T02:51:55.384Z,80.49
2022-11-23T02:56:56.685Z,80.26
2022-11-23T03:01:59.120Z,80.32
2022-11-23T03:07:00.629Z,80.52
2022-11-23T03:12:01.983Z,80.16
2022-11-23T03:17:03.272Z,80.02
2022-11-23T03:22:04.709Z,80.03
2022-11-23T03:27:06.045Z,79.93
2022-11-23T03:32:07.409Z,80.13
2022-11-23T03:37:08.760Z,79.68
2022-11-23T03:42:10.027Z,79.85
2022-11-23T03:47:12.022Z,80.63
2022-11-23T03:52:13.730Z,81.01
2022-11-23T03:57:15.119Z,80.79
2022-11-23T04:02:16.386Z,80.76
2022-11-23T04:07:17.803Z,81.07
2022-11-23T04:12:19.328Z,81.12
2022-11-23T04:17:20.711Z,80.76
2022-11-23T04:22:22.009Z,80.97
2022-11-23T04:27:23.411Z,81.20
2022-11-23T04:32:24.755Z,81.55
2022-11-23T04:37:26.094Z,80.82
2022-11-23T04:42:27.436Z,80.76
2022-11-23T04:47:28.802Z,80.36
2022-11-23T04:52:30.209Z,80.42
2022-11-23T04:57:31.543Z,80.75
2022-11-23T05:02:32.926Z,81.15
2022-11-23T05:07:34.497Z,80.87
2022-11-23T05:12:36.516Z,80.77
2022-11-23T05:17:37.817Z,80.66
2022-11-23T05:22:39.237Z,80.43
2022-11-23T05:27:40.569Z,80.87
2022-11-23T05:32:41.928Z,80.43
2022-11-23T05:37:43.316Z,80.37
2022-11-23T05:42:44.633Z,80.56
2022-11-23T05:47:50.633Z,79.83
2022-11-23T05:52:52.110Z,80.05
2022-11-23T05:57:53.684Z,80.60
2022-11-23T06:03:00.254Z,80.12
2022-11-23T06:08:01.580Z,80.42
2022-11-23T06:13:04.708Z,80.43
2022-11-23T06:18:06.104Z,80.64
2022-11-23T06:23:07.416Z,80.31
2022-11-23T06:28:08.812Z,80.88
2022-11-23T06:33:10.552Z,81.21
2022-11-23T06:38:11.872Z,80.99
2022-11-23T06:43:13.296Z,81.38
2022-11-23T06:48:14.686Z,81.36
2022-11-23T06:53:16.203Z,81.84
2022-11-23T06:58:17.605Z,81.75
2022-11-23T07:03:24.041Z,81.58
2022-11-23T07:08:25.558Z,81.37
2022-11-23T07:13:26.912Z,81.76
2022-11-23T07:18:28.634Z,81.35
2022-11-23T07:23:29.994Z,80.86
2022-11-23T07:28:31.290Z,80.67
2022-11-23T07:33:32.725Z,80.80
2022-11-23T07:38:34.138Z,80.83
2022-11-23T07:43:35.608Z,81.20
2022-11-23T07:48:36.964Z,80.53
2022-11-23T07:53:38.363Z,79.96
2022-11-23T07:58:39.729Z,79.89
2022-11-23T08:03:41.234Z,79.53
2022-11-23T08:08:42.686Z,79.74
2022-11-23T08:13:44.741Z,80.15
2022-11-23T08:18:46.093Z,80.21
2022-11-23T08:23:47.600Z,79.46
2022-11-23T08:28:49.250Z,79.09
2022-11-23T08:33:51.055Z,79.49
2022-11-23T08:38:52.829Z,79.03
2022-11-23T08:43:54.150Z,77.80
2022-11-23T08:48:55.468Z,77.05
2022-11-23T08:53:56.805Z,76.40
2022-11-23T08:58:58.157Z,75.51
2022-11-23T09:03:59.513Z,75.64
2022-11-23T09:09:01.703Z,74.69
2022-11-23T09:14:03.122Z,74.53
2022-11-23T09:19:06.039Z,74.78
2022-11-23T09:24:07.720Z,73.66
2022-11-23T09:29:09.488Z,73.14
2022-11-23T09:34:13.988Z,71.71
2022-11-23T09:39:15.454Z,71.08
2022-11-23T09:44:55.672Z,70.00
2022-11-23T09:50:23.062Z,68.01
2022-11-23T09:55:37.617Z,66.18
2022-11-23T10:00:46.294Z,64.35
2022-11-23T10:06:01.854Z,62.88
2022-11-23T10:11:43.777Z,62.30
2022-11-23T10:17:11.597Z,61.89
2022-11-23T10:22:22.474Z,55.35
2022-11-23T10:27:25.092Z,44.61
2022-11-23T10:32:33.917Z,37.65
2022-11-23T10:37:35.365Z,34.73
2022-11-23T10:42:43.360Z,33.50
2022-11-23T10:47:58.723Z,31.39
2022-11-23T10:53:25.969Z,30.91
2022-11-23T10:58:31.219Z,28.11
2022-11-23T11:03:34.550Z,27.39
2022-11-23T11:08:53.980Z,26.91
2022-11-23T11:14:13.984Z,26.19
2022-11-23T11:19:28.259Z,25.84
2022-11-23T11:24:47.004Z,23.86
2022-11-23T11:29:51.412Z,23.36
2022-11-23T11:34:59.072Z,23.85
2022-11-23T11:40:19.035Z,23.23
2022-11-23T11:45:25.001Z,21.78
2022-11-23T11:50:32.233Z,22.19
2022-11-23T11:55:50.916Z,21.01
2022-11-23T12:01:06.704Z,21.59
2022-11-23T12:06:26.475Z,21.24
2022-11-23T12:11:28.112Z,20.42
2022-11-23T12:17:10.301Z,19.53
2022-11-23T12:22:48.631Z,18.33
2022-11-23T12:28:23.093Z,19.13
2022-11-23T12:34:00.798Z,18.83
2022-11-23T12:39:20.045Z,18.40
2022-11-23T12:44:40.274Z,18.52
2022-11-23T12:49:57.007Z,19.00
2022-11-23T12:55:36.131Z,18.28
2022-11-23T13:00:53.088Z,17.14
2022-11-23T13:06:03.610Z,16.80
2022-11-23T13:11:26.616Z,17.43
2022-11-23T13:17:01.946Z,16.65
2022-11-23T13:22:10.027Z,17.00
2022-11-23T13:27:14.436Z,17.37
2022-11-23T13:32:42.803Z,19.26
2022-11-23T13:37:56.372Z,25.97
2022-11-23T13:43:02.192Z,30.92
2022-11-23T13:48:19.346Z,33.75
2022-11-23T13:53:36.608Z,35.15
2022-11-23T13:58:39.632Z,37.30
2022-11-23T14:03:49.003Z,39.09
2022-11-23T14:09:02.917Z,39.19
2022-11-23T14:14:14.427Z,39.16
2022-11-23T14:19:46.505Z,39.84
2022-11-23T14:25:23.696Z,40.30
2022-11-23T14:30:38.946Z,40.18
2022-11-23T14:36:13.163Z,40.73
2022-11-23T14:41:25.956Z,41.06
2022-11-23T14:46:27.400Z,41.61
2022-11-23T14:51:28.845Z,41.89
2022-11-23T14:56:34.016Z,43.47
2022-11-23T15:01:36.983Z,44.77
2022-11-23T15:06:46.375Z,45.65
2022-11-23T15:11:49.028Z,46.60
2022-11-23T15:16:50.582Z,47.92
2022-11-23T15:21:52.265Z,48.62
2022-11-23T15:27:06.480Z,49.45
2022-11-23T15:32:31.943Z,50.06
2022-11-23T15:37:42.657Z,50.69
2022-11-23T15:42:46.733Z,51.12
2022-11-23T15:47:48.091Z,51.84
2022-11-23T15:52:49.378Z,52.24
2022-11-23T15:57:56.032Z,52.89
2022-11-23T16:03:20.759Z,53.30
2022-11-23T16:08:25.611Z,53.59
2022-11-23T16:13:38.588Z,54.18
2022-11-23T16:18:45.167Z,54.16
2022-11-23T16:23:51.408Z,54.59
2022-11-23T16:28:58.186Z,54.56
2022-11-23T16:33:59.682Z,54.42
2022-11-23T16:39:05.362Z,54.70
2022-11-23T16:44:07.416Z,54.79
2022-11-23T16:49:17.734Z,54.29
2022-11-23T16:54:24.408Z,54.58
2022-11-23T16:59:26.059Z,54.03
2022-11-23T17:04:27.372Z,53.94
2022-11-23T17:09:28.736Z,53.45
2022-11-23T17:14:36.814Z,53.93
2022-11-23T17:19:38.277Z,53.67
2022-11-23T17:24:39.557Z,53.67
2022-11-23T17:29:42.649Z,53.95
2022-11-23T17:34:44.125Z,53.95
2022-11-23T17:39:46.776Z,54.03
2022-11-23T17:44:48.240Z,54.58
2022-11-23T17:49:49.500Z,54.88
2022-11-23T17:54:51.536Z,55.45
2022-11-23T17:59:54.331Z,56.90
2022-11-23T18:04:56.061Z,61.37
2022-11-23T18:09:57.412Z,64.25
2022-11-23T18:14:58.677Z,67.12
2022-11-23T18:19:59.956Z,70.17
2022-11-23T18:25:01.269Z,73.16
2022-11-23T18:30:02.560Z,75.04
2022-11-23T18:35:05.062Z,76.02
2022-11-23T18:40:06.964Z,78.32
2022-11-23T18:45:08.772Z,77.36
2022-11-23T18:50:10.196Z,79.57
2022-11-23T18:55:11.812Z,75.83
2022-11-23T19:00:16.361Z,78.75
2022-11-23T19:05:17.728Z,76.59
2022-11-23T19:10:19.699Z,79.32
2022-11-23T19:15:21.172Z,77.81
2022-11-23T19:20:23.598Z,78.49
2022-11-23T19:25:24.933Z,79.22
2022-11-23T19:30:26.204Z,79.28
2022-11-23T19:35:27.793Z,80.80
2022-11-23T19:40:29.502Z,79.69
2022-11-23T19:45:30.874Z,82.05
2022-11-23T19:50:32.156Z,81.20
2022-11-23T19:55:33.437Z,81.17
2022-11-23T20:00:37.068Z,81.45
2022-11-23T20:05:38.624Z,81.92
2022-11-23T20:10:40.105Z,81.77
2022-11-23T20:15:44.730Z,82.44
2022-11-23T20:20:47.454Z,81.11
2022-11-23T20:25:48.925Z,82.02
2022-11-23T20:30:50.939Z,82.61
2022-11-23T20:35:52.534Z,82.82
2022-11-23T20:40:53.801Z,83.52
2022-11-23T20:45:58.320Z,83.71
2022-11-23T20:50:59.716Z,84.31
2022-11-23T20:56:08.006Z,84.46
2022-11-23T21:01:15.753Z,84.95
2022-11-23T21:06:17.681Z,85.60
2022-11-23T21:11:41.731Z,85.81
2022-11-23T21:16:52.988Z,87.73
2022-11-23T21:21:55.796Z,89.02
2022-11-23T21:26:57.150Z,90.29
2022-11-23T21:31:58.775Z,90.68
2022-11-23T21:37:00.254Z,92.36
2022-11-23T21:42:01.731Z,92.16
2022-11-23T21:47:03.159Z,92.50
2022-11-23T21:52:04.604Z,93.43
2022-11-23T21:57:05.944Z,92.70
2022-11-23T22:02:12.171Z,92.77
2022-11-23T22:07:13.512Z,93.20
2022-11-23T22:12:14.868Z,93.24
2022-11-23T22:17:16.198Z,93.07
2022-11-23T22:22:17.460Z,92.72
2022-11-23T22:27:19.499Z,93.19
2022-11-23T22:32:20.742Z,93.26
2022-11-23T22:37:22.001Z,92.86
2022-11-23T22:42:23.322Z,93.94
2022-11-23T22:47:25.283Z,93.21
2022-11-23T22:52:26.531Z,93.13
2022-11-23T22:57:27.817Z,92.82
2022-11-23T23:02:29.961Z,92.96
2022-11-23T23:07:31.365Z,92.11
2022-11-23T23:12:32.794Z,92.35
2022-11-23T23:17:34.080Z,92.77
2022-11-23T23:22:35.337Z,92.65
2022-11-23T23:27:36.590Z,92.49
2022-11-23T23:32:37.896Z,91.88
2022-11-23T23:37:39.203Z,92.06
2022-11-23T23:42:40.501Z,92.05
2022-11-23T23:47:41.768Z,92.57
2022-11-23T23:52:43.119Z,92.11
2022-11-23T23:57:44.391Z,93.12
